sensor_id;sensor_type;location;lat;lon;timestamp;pressure;altitude;pressure_sealevel;temperature;humidity
72892;BME280;61032;50.782;6.818;2023-03-25T00:00:16;99424.69;;;9.80;67.43
72892;BME280;61032;50.782;6.818;2023-03-25T00:01:18;99422.84;;;9.84;67.80
72892;BME280;61032;50.782;6.818;2023-03-25T00:02:20;99435.41;;;9.85;67.22
72892;BME280;61032;50.782;6.818;2023-03-25T00:03:20;99429.38;;;9.79;66.89
72892;BME280;61032;50.782;6.818;2023-03-25T00:04:21;99433.69;;;9.64;66.96
72892;BME280;61032;50.782;6.818;2023-03-25T00:05:26;99431.66;;;9.61;67.53
72892;BME280;61032;50.782;6.818;2023-03-25T00:06:27;99431.31;;;9.63;67.46
72892;BME280;61032;50.782;6.818;2023-03-25T00:07:27;99433.00;;;9.68;67.44
72892;BME280;61032;50.782;6.818;2023-03-25T00:08:27;99436.31;;;9.73;68.01
72892;BME280;61032;50.782;6.818;2023-03-25T00:09:28;99426.19;;;9.77;67.42
72892;BME280;61032;50.782;6.818;2023-03-25T00:10:28;99438.88;;;9.82;67.22
72892;BME280;61032;50.782;6.818;2023-03-25T00:11:29;99439.88;;;9.89;66.89
72892;BME280;61032;50.782;6.818;2023-03-25T00:12:29;99438.81;;;9.94;66.75
72892;BME280;61032;50.782;6.818;2023-03-25T00:13:30;99432.88;;;9.92;66.66
72892;BME280;61032;50.782;6.818;2023-03-25T00:14:30;99439.63;;;9.94;66.88
72892;BME280;61032;50.782;6.818;2023-03-25T00:15:32;99445.91;;;9.95;67.16
72892;BME280;61032;50.782;6.818;2023-03-25T00:16:35;99444.03;;;9.99;66.35
72892;BME280;61032;50.782;6.818;2023-03-25T00:17:36;99442.44;;;9.98;66.67
72892;BME280;61032;50.782;6.818;2023-03-25T00:18:37;99443.44;;;10.06;66.35
72892;BME280;61032;50.782;6.818;2023-03-25T00:19:37;99432.09;;;10.07;66.33
72892;BME280;61032;50.782;6.818;2023-03-25T00:20:38;99435.63;;;10.08;66.43
72892;BME280;61032;50.782;6.818;2023-03-25T00:21:41;99432.09;;;10.07;66.53
72892;BME280;61032;50.782;6.818;2023-03-25T00:22:44;99434.13;;;10.10;66.84
72892;BME280;61032;50.782;6.818;2023-03-25T00:23:44;99433.69;;;10.08;66.63
72892;BME280;61032;50.782;6.818;2023-03-25T00:24:45;99441.78;;;10.17;66.07
72892;BME280;61032;50.782;6.818;2023-03-25T00:25:46;99431.13;;;10.15;65.49
72892;BME280;61032;50.782;6.818;2023-03-25T00:26:46;99434.13;;;10.10;65.24
72892;BME280;61032;50.782;6.818;2023-03-25T00:27:47;99434.56;;;9.96;65.80
72892;BME280;61032;50.782;6.818;2023-03-25T00:28:49;99428.44;;;10.03;66.58
72892;BME280;61032;50.782;6.818;2023-03-25T00:29:49;99431.03;;;9.96;65.93
72892;BME280;61032;50.782;6.818;2023-03-25T00:30:50;99430.31;;;9.99;66.63
72892;BME280;61032;50.782;6.818;2023-03-25T00:31:52;99428.63;;;10.10;65.80
72892;BME280;61032;50.782;6.818;2023-03-25T00:32:53;99436.78;;;10.07;65.56
72892;BME280;61032;50.782;6.818;2023-03-25T00:33:53;99441.72;;;10.01;65.65
72892;BME280;61032;50.782;6.818;2023-03-25T00:34:54;99435.88;;;10.03;65.78
72892;BME280;61032;50.782;6.818;2023-03-25T00:35:54;99439.44;;;10.03;66.04
72892;BME280;61032;50.782;6.818;2023-03-25T00:36:58;99437.59;;;10.07;65.84
72892;BME280;61032;50.782;6.818;2023-03-25T00:37:58;99433.94;;;10.03;65.78
72892;BME280;61032;50.782;6.818;2023-03-25T00:39:03;99431.84;;;10.12;66.25
72892;BME280;61032;50.782;6.818;2023-03-25T00:40:04;99429.53;;;10.14;65.74
72892;BME280;61032;50.782;6.818;2023-03-25T00:41:16;99428.56;;;10.22;66.27
72892;BME280;61032;50.782;6.818;2023-03-25T00:42:24;99435.41;;;10.28;65.76
72892;BME280;61032;50.782;6.818;2023-03-25T00:43:27;99431.50;;;10.29;65.89
72892;BME280;61032;50.782;6.818;2023-03-25T00:44:28;99436.22;;;10.29;65.69
72892;BME280;61032;50.782;6.818;2023-03-25T00:45:28;99432.16;;;10.39;66.19
72892;BME280;61032;50.782;6.818;2023-03-25T00:46:31;99427.44;;;10.39;65.58
72892;BME280;61032;50.782;6.818;2023-03-25T00:47:32;99414.47;;;10.40;65.47
72892;BME280;61032;50.782;6.818;2023-03-25T00:48:32;99430.69;;;10.45;65.50
72892;BME280;61032;50.782;6.818;2023-03-25T00:49:32;99422.91;;;10.47;65.36
72892;BME280;61032;50.782;6.818;2023-03-25T00:50:33;99426.00;;;10.45;65.24
72892;BME280;61032;50.782;6.818;2023-03-25T00:51:33;99422.47;;;10.45;65.24
72892;BME280;61032;50.782;6.818;2023-03-25T00:52:34;99429.38;;;10.54;65.90
72892;BME280;61032;50.782;6.818;2023-03-25T00:53:35;99427.25;;;10.48;65.06
72892;BME280;61032;50.782;6.818;2023-03-25T00:54:36;99433.09;;;10.46;65.11
72892;BME280;61032;50.782;6.818;2023-03-25T00:55:37;99428.41;;;10.47;65.68
72892;BME280;61032;50.782;6.818;2023-03-25T00:56:37;99422.63;;;10.52;65.88
72892;BME280;61032;50.782;6.818;2023-03-25T00:57:37;99424.22;;;10.53;65.24
72892;BME280;61032;50.782;6.818;2023-03-25T00:58:38;99424.06;;;10.46;64.88
72892;BME280;61032;50.782;6.818;2023-03-25T00:59:39;99421.66;;;10.44;65.29
72892;BME280;61032;50.782;6.818;2023-03-25T01:00:39;99434.59;;;10.44;65.15
72892;BME280;61032;50.782;6.818;2023-03-25T01:01:40;99429.41;;;10.39;65.41
72892;BME280;61032;50.782;6.818;2023-03-25T01:02:42;99426.38;;;10.28;65.03
72892;BME280;61032;50.782;6.818;2023-03-25T01:03:43;99421.56;;;10.09;65.89
72892;BME280;61032;50.782;6.818;2023-03-25T01:04:44;99417.22;;;10.08;66.15
72892;BME280;61032;50.782;6.818;2023-03-25T01:05:44;99426.59;;;10.07;65.91
72892;BME280;61032;50.782;6.818;2023-03-25T01:06:45;99427.16;;;10.13;66.13
72892;BME280;61032;50.782;6.818;2023-03-25T01:07:45;99422.72;;;10.24;66.14
72892;BME280;61032;50.782;6.818;2023-03-25T01:08:50;99427.53;;;10.27;65.80
72892;BME280;61032;50.782;6.818;2023-03-25T01:09:51;99419.63;;;10.25;65.70
72892;BME280;61032;50.782;6.818;2023-03-25T01:10:52;99417.22;;;10.08;65.82
72892;BME280;61032;50.782;6.818;2023-03-25T01:11:53;99425.59;;;9.99;66.33
72892;BME280;61032;50.782;6.818;2023-03-25T01:12:53;99424.09;;;10.02;66.48
72892;BME280;61032;50.782;6.818;2023-03-25T01:13:55;99428.09;;;10.05;66.22
72892;BME280;61032;50.782;6.818;2023-03-25T01:14:55;99418.25;;;10.04;65.61
72892;BME280;61032;50.782;6.818;2023-03-25T01:15:56;99427.50;;;10.11;65.90
72892;BME280;61032;50.782;6.818;2023-03-25T01:16:58;99425.69;;;10.03;65.93
72892;BME280;61032;50.782;6.818;2023-03-25T01:17:59;99427.75;;;10.06;65.76
72892;BME280;61032;50.782;6.818;2023-03-25T01:18:59;99426.34;;;10.12;65.76
72892;BME280;61032;50.782;6.818;2023-03-25T01:19:59;99423.75;;;10.04;66.25
72892;BME280;61032;50.782;6.818;2023-03-25T01:21:00;99421.47;;;10.06;66.12
72892;BME280;61032;50.782;6.818;2023-03-25T01:22:00;99432.28;;;10.14;66.74
72892;BME280;61032;50.782;6.818;2023-03-25T01:23:00;99429.63;;;10.18;67.07
72892;BME280;61032;50.782;6.818;2023-03-25T01:24:05;99418.03;;;10.24;67.34
72892;BME280;61032;50.782;6.818;2023-03-25T01:25:06;99414.94;;;10.26;67.51
72892;BME280;61032;50.782;6.818;2023-03-25T01:26:07;99423.69;;;10.16;66.73
72892;BME280;61032;50.782;6.818;2023-03-25T01:27:07;99425.91;;;10.10;66.64
72892;BME280;61032;50.782;6.818;2023-03-25T01:28:08;99417.84;;;10.17;66.36
72892;BME280;61032;50.782;6.818;2023-03-25T01:29:10;99423.53;;;10.24;67.19
72892;BME280;61032;50.782;6.818;2023-03-25T01:30:11;99413.34;;;10.25;66.99
72892;BME280;61032;50.782;6.818;2023-03-25T01:31:13;99411.84;;;10.27;67.53
72892;BME280;61032;50.782;6.818;2023-03-25T01:32:14;99415.91;;;10.33;67.27
72892;BME280;61032;50.782;6.818;2023-03-25T01:33:15;99412.03;;;10.35;67.88
72892;BME280;61032;50.782;6.818;2023-03-25T01:34:16;99415.22;;;10.37;67.30
72892;BME280;61032;50.782;6.818;2023-03-25T01:35:16;99414.22;;;10.29;67.36
72892;BME280;61032;50.782;6.818;2023-03-25T01:36:16;99415.13;;;10.33;67.91
72892;BME280;61032;50.782;6.818;2023-03-25T01:37:17;99414.06;;;10.38;67.65
72892;BME280;61032;50.782;6.818;2023-03-25T01:38:18;99407.41;;;10.39;67.37
72892;BME280;61032;50.782;6.818;2023-03-25T01:39:18;99413.78;;;10.43;68.55
72892;BME280;61032;50.782;6.818;2023-03-25T01:40:20;99419.34;;;10.46;67.27
72892;BME280;61032;50.782;6.818;2023-03-25T01:41:23;99411.81;;;10.43;66.84
72892;BME280;61032;50.782;6.818;2023-03-25T01:42:23;99409.88;;;10.44;66.67
72892;BME280;61032;50.782;6.818;2023-03-25T01:43:23;99413.31;;;10.41;67.19
72892;BME280;61032;50.782;6.818;2023-03-25T01:45:33;99409.25;;;10.19;67.88
72892;BME280;61032;50.782;6.818;2023-03-25T01:46:40;99407.06;;;10.24;67.98
72892;BME280;61032;50.782;6.818;2023-03-25T01:47:45;99408.47;;;10.34;68.27
72892;BME280;61032;50.782;6.818;2023-03-25T01:48:47;99397.03;;;10.32;68.09
72892;BME280;61032;50.782;6.818;2023-03-25T01:49:49;99395.09;;;10.32;68.23
72892;BME280;61032;50.782;6.818;2023-03-25T01:50:52;99401.38;;;10.33;67.79
72892;BME280;61032;50.782;6.818;2023-03-25T01:51:56;99405.88;;;10.41;68.00
72892;BME280;61032;50.782;6.818;2023-03-25T01:53:01;99403.56;;;10.43;67.87
72892;BME280;61032;50.782;6.818;2023-03-25T01:54:03;99403.78;;;10.35;68.13
72892;BME280;61032;50.782;6.818;2023-03-25T01:55:04;99393.50;;;10.31;67.64
72892;BME280;61032;50.782;6.818;2023-03-25T01:56:05;99410.34;;;10.30;68.00
72892;BME280;61032;50.782;6.818;2023-03-25T01:57:07;99404.94;;;10.33;68.26
72892;BME280;61032;50.782;6.818;2023-03-25T01:58:12;99401.03;;;10.35;68.45
72892;BME280;61032;50.782;6.818;2023-03-25T01:59:16;99399.22;;;10.42;68.14
72892;BME280;61032;50.782;6.818;2023-03-25T02:00:18;99401.19;;;10.42;67.18
72892;BME280;61032;50.782;6.818;2023-03-25T02:01:20;99395.78;;;10.45;67.04
72892;BME280;61032;50.782;6.818;2023-03-25T02:02:22;99401.00;;;10.50;67.22
72892;BME280;61032;50.782;6.818;2023-03-25T02:03:24;99396.56;;;10.46;67.25
72892;BME280;61032;50.782;6.818;2023-03-25T02:04:58;99403.94;;;10.42;67.63
72892;BME280;61032;50.782;6.818;2023-03-25T02:06:05;99398.16;;;10.47;67.66
72892;BME280;61032;50.782;6.818;2023-03-25T02:07:07;99391.88;;;10.46;67.10
72892;BME280;61032;50.782;6.818;2023-03-25T02:08:09;99400.47;;;10.45;66.87
72892;BME280;61032;50.782;6.818;2023-03-25T02:09:12;99397.38;;;10.46;67.54
72892;BME280;61032;50.782;6.818;2023-03-25T02:10:15;99397.63;;;10.57;67.19
72892;BME280;61032;50.782;6.818;2023-03-25T02:11:15;99393.00;;;10.61;66.92
72892;BME280;61032;50.782;6.818;2023-03-25T02:12:16;99398.94;;;10.63;66.33
72892;BME280;61032;50.782;6.818;2023-03-25T02:13:16;99392.06;;;10.53;67.18
72892;BME280;61032;50.782;6.818;2023-03-25T02:14:21;99398.16;;;10.47;66.62
72892;BME280;61032;50.782;6.818;2023-03-25T02:15:22;99390.47;;;10.52;66.71
72892;BME280;61032;50.782;6.818;2023-03-25T02:16:41;99390.38;;;10.49;66.65
72892;BME280;61032;50.782;6.818;2023-03-25T02:24:26;99393.56;;;10.19;68.03
72892;BME280;61032;50.782;6.818;2023-03-25T02:40:43;99397.22;;;9.64;67.20
72892;BME280;61032;50.782;6.818;2023-03-25T02:41:58;99400.41;;;9.66;67.63
72892;BME280;61032;50.782;6.818;2023-03-25T02:43:09;99400.78;;;9.64;67.90
72892;BME280;61032;50.782;6.818;2023-03-25T02:45:36;99391.59;;;9.73;66.77
72892;BME280;61032;50.782;6.818;2023-03-25T02:46:48;99387.25;;;9.72;66.60
72892;BME280;61032;50.782;6.818;2023-03-25T02:47:53;99385.19;;;9.69;66.09
72892;BME280;61032;50.782;6.818;2023-03-25T02:49:03;99388.19;;;9.63;66.56
72892;BME280;61032;50.782;6.818;2023-03-25T02:50:10;99386.84;;;9.57;66.77
72892;BME280;61032;50.782;6.818;2023-03-25T02:51:17;99394.66;;;9.55;66.57
72892;BME280;61032;50.782;6.818;2023-03-25T02:52:25;99398.28;;;9.59;66.36
72892;BME280;61032;50.782;6.818;2023-03-25T02:53:29;99390.94;;;9.63;65.99
72892;BME280;61032;50.782;6.818;2023-03-25T02:54:33;99394.38;;;9.60;66.17
72892;BME280;61032;50.782;6.818;2023-03-25T02:55:37;99394.28;;;9.57;65.85
72892;BME280;61032;50.782;6.818;2023-03-25T02:56:42;99393.47;;;9.56;66.63
72892;BME280;61032;50.782;6.818;2023-03-25T02:57:47;99406.97;;;9.61;66.54
72892;BME280;61032;50.782;6.818;2023-03-25T02:58:49;99404.22;;;9.61;67.01
72892;BME280;61032;50.782;6.818;2023-03-25T02:59:51;99406.72;;;9.67;67.07
72892;BME280;61032;50.782;6.818;2023-03-25T03:00:53;99399.28;;;9.83;66.71
72892;BME280;61032;50.782;6.818;2023-03-25T03:02:02;99398.03;;;9.80;66.16
72892;BME280;61032;50.782;6.818;2023-03-25T03:03:05;99403.47;;;9.92;65.66
72892;BME280;61032;50.782;6.818;2023-03-25T03:04:06;99408.22;;;9.80;65.47
72892;BME280;61032;50.782;6.818;2023-03-25T03:05:24;99408.75;;;9.70;65.83
72892;BME280;61032;50.782;6.818;2023-03-25T03:06:25;99407.06;;;9.65;65.84
72892;BME280;61032;50.782;6.818;2023-03-25T03:10:09;99407.66;;;9.58;66.02
72892;BME280;61032;50.782;6.818;2023-03-25T03:12:57;99396.69;;;9.58;66.11
72892;BME280;61032;50.782;6.818;2023-03-25T03:19:37;99398.19;;;9.56;66.36
72892;BME280;61032;50.782;6.818;2023-03-25T03:20:43;99399.59;;;9.50;66.76
72892;BME280;61032;50.782;6.818;2023-03-25T03:21:57;99406.44;;;9.56;66.79
72892;BME280;61032;50.782;6.818;2023-03-25T03:23:12;99405.53;;;9.52;67.21
72892;BME280;61032;50.782;6.818;2023-03-25T03:24:36;99407.03;;;9.49;67.15
72892;BME280;61032;50.782;6.818;2023-03-25T03:25:47;99398.94;;;9.41;67.28
72892;BME280;61032;50.782;6.818;2023-03-25T03:26:52;99400.19;;;9.43;66.94
72892;BME280;61032;50.782;6.818;2023-03-25T03:28:08;99407.28;;;9.44;67.60
72892;BME280;61032;50.782;6.818;2023-03-25T03:29:13;99403.38;;;9.45;67.67
72892;BME280;61032;50.782;6.818;2023-03-25T03:30:21;99393.78;;;9.39;67.84
72892;BME280;61032;50.782;6.818;2023-03-25T03:31:37;99387.97;;;9.41;67.09
72892;BME280;61032;50.782;6.818;2023-03-25T03:34:04;99402.47;;;9.41;66.83
72892;BME280;61032;50.782;6.818;2023-03-25T03:35:16;99395.94;;;9.46;66.74
72892;BME280;61032;50.782;6.818;2023-03-25T03:36:21;99401.03;;;9.32;66.81
72892;BME280;61032;50.782;6.818;2023-03-25T03:37:39;99391.91;;;9.27;66.97
72892;BME280;61032;50.782;6.818;2023-03-25T03:38:56;99399.78;;;9.29;66.98
72892;BME280;61032;50.782;6.818;2023-03-25T03:39:59;99392.03;;;9.31;67.10
72892;BME280;61032;50.782;6.818;2023-03-25T03:41:08;99393.91;;;9.43;66.46
72892;BME280;61032;50.782;6.818;2023-03-25T03:42:18;99398.00;;;9.49;66.00
72892;BME280;61032;50.782;6.818;2023-03-25T03:43:32;99398.28;;;9.59;65.40
72892;BME280;61032;50.782;6.818;2023-03-25T03:44:37;99399.50;;;9.46;65.75
72892;BME280;61032;50.782;6.818;2023-03-25T03:45:48;99396.09;;;9.37;65.50
72892;BME280;61032;50.782;6.818;2023-03-25T03:47:04;99397.19;;;9.48;65.65
72892;BME280;61032;50.782;6.818;2023-03-25T03:48:11;99402.22;;;9.46;64.91
72892;BME280;61032;50.782;6.818;2023-03-25T03:49:17;99409.41;;;9.51;65.18
72892;BME280;61032;50.782;6.818;2023-03-25T03:50:24;99404.19;;;9.46;65.09
72892;BME280;61032;50.782;6.818;2023-03-25T03:51:32;99410.47;;;9.46;65.31
72892;BME280;61032;50.782;6.818;2023-03-25T03:52:38;99409.22;;;9.44;65.25
72892;BME280;61032;50.782;6.818;2023-03-25T03:53:46;99417.00;;;9.42;65.47
72892;BME280;61032;50.782;6.818;2023-03-25T03:54:55;99411.38;;;9.50;65.33
72892;BME280;61032;50.782;6.818;2023-03-25T03:56:13;99414.25;;;9.42;64.95
72892;BME280;61032;50.782;6.818;2023-03-25T03:57:29;99410.47;;;9.46;65.40
72892;BME280;61032;50.782;6.818;2023-03-25T03:58:35;99418.00;;;9.49;65.46
72892;BME280;61032;50.782;6.818;2023-03-25T04:01:07;99405.66;;;9.43;65.29
72892;BME280;61032;50.782;6.818;2023-03-25T04:02:29;99408.31;;;9.40;65.18
72892;BME280;61032;50.782;6.818;2023-03-25T04:03:38;99404.81;;;9.27;65.76
72892;BME280;61032;50.782;6.818;2023-03-25T04:04:40;99412.53;;;9.37;65.65
72892;BME280;61032;50.782;6.818;2023-03-25T04:05:44;99408.13;;;9.33;65.62
72892;BME280;61032;50.782;6.818;2023-03-25T04:08:01;99399.69;;;9.25;66.55
72892;BME280;61032;50.782;6.818;2023-03-25T04:09:27;99413.75;;;9.24;66.64
72892;BME280;61032;50.782;6.818;2023-03-25T04:10:38;99410.59;;;9.10;66.96
72892;BME280;61032;50.782;6.818;2023-03-25T04:11:43;99414.25;;;9.14;67.45
72892;BME280;61032;50.782;6.818;2023-03-25T04:12:51;99410.09;;;9.20;67.45
72892;BME280;61032;50.782;6.818;2023-03-25T04:13:56;99414.91;;;9.23;67.48
72892;BME280;61032;50.782;6.818;2023-03-25T04:15:01;99410.22;;;9.23;67.02
72892;BME280;61032;50.782;6.818;2023-03-25T04:16:02;99408.16;;;9.20;66.57
72892;BME280;61032;50.782;6.818;2023-03-25T04:17:06;99415.78;;;9.27;66.62
72892;BME280;61032;50.782;6.818;2023-03-25T04:18:06;99423.13;;;9.23;66.65
72892;BME280;61032;50.782;6.818;2023-03-25T04:19:07;99426.22;;;9.21;66.95
72892;BME280;61032;50.782;6.818;2023-03-25T04:20:16;99418.53;;;9.27;66.67
72892;BME280;61032;50.782;6.818;2023-03-25T04:21:22;99424.72;;;9.24;66.97
72892;BME280;61032;50.782;6.818;2023-03-25T04:22:24;99428.25;;;9.24;66.59
72892;BME280;61032;50.782;6.818;2023-03-25T04:23:25;99420.50;;;9.26;66.94
72892;BME280;61032;50.782;6.818;2023-03-25T04:24:29;99422.66;;;9.33;66.71
72892;BME280;61032;50.782;6.818;2023-03-25T04:25:30;99423.34;;;9.30;66.25
72892;BME280;61032;50.782;6.818;2023-03-25T04:26:33;99418.75;;;9.34;66.74
72892;BME280;61032;50.782;6.818;2023-03-25T04:27:37;99423.16;;;9.39;66.23
72892;BME280;61032;50.782;6.818;2023-03-25T04:28:37;99416.00;;;9.34;66.45
72892;BME280;61032;50.782;6.818;2023-03-25T04:29:41;99415.28;;;9.37;66.19
72892;BME280;61032;50.782;6.818;2023-03-25T04:30:43;99419.38;;;9.43;66.30
72892;BME280;61032;50.782;6.818;2023-03-25T04:31:47;99406.69;;;9.51;66.08
72892;BME280;61032;50.782;6.818;2023-03-25T04:32:49;99410.56;;;9.50;66.32
72892;BME280;61032;50.782;6.818;2023-03-25T04:33:50;99415.00;;;9.54;65.86
72892;BME280;61032;50.782;6.818;2023-03-25T04:34:51;99416.22;;;9.57;65.70
72892;BME280;61032;50.782;6.818;2023-03-25T04:35:51;99411.38;;;9.50;65.83
72892;BME280;61032;50.782;6.818;2023-03-25T04:36:52;99410.66;;;9.53;65.60
72892;BME280;61032;50.782;6.818;2023-03-25T04:37:52;99416.69;;;9.59;65.94
72892;BME280;61032;50.782;6.818;2023-03-25T04:38:54;99412.19;;;9.67;65.22
72892;BME280;61032;50.782;6.818;2023-03-25T04:39:54;99423.16;;;9.67;65.03
72892;BME280;61032;50.782;6.818;2023-03-25T04:40:59;99416.59;;;9.55;65.61
72892;BME280;61032;50.782;6.818;2023-03-25T04:41:59;99408.16;;;9.48;65.51
72892;BME280;61032;50.782;6.818;2023-03-25T04:43:02;99422.13;;;9.43;65.42
72892;BME280;61032;50.782;6.818;2023-03-25T04:44:03;99425.53;;;9.52;66.29
72892;BME280;61032;50.782;6.818;2023-03-25T04:45:08;99421.47;;;9.62;65.78
72892;BME280;61032;50.782;6.818;2023-03-25T04:46:14;99424.13;;;9.58;65.55
72892;BME280;61032;50.782;6.818;2023-03-25T04:47:17;99421.94;;;9.64;65.80
72892;BME280;61032;50.782;6.818;2023-03-25T04:48:26;99426.63;;;9.63;65.42
72892;BME280;61032;50.782;6.818;2023-03-25T04:49:31;99418.38;;;9.63;65.47
72892;BME280;61032;50.782;6.818;2023-03-25T04:50:31;99415.94;;;9.74;65.36
72892;BME280;61032;50.782;6.818;2023-03-25T04:51:32;99420.19;;;9.72;64.92
72892;BME280;61032;50.782;6.818;2023-03-25T04:52:32;99415.38;;;9.69;64.63
72892;BME280;61032;50.782;6.818;2023-03-25T04:53:33;99419.97;;;9.64;65.13
72892;BME280;61032;50.782;6.818;2023-03-25T04:54:34;99421.94;;;9.64;64.69
72892;BME280;61032;50.782;6.818;2023-03-25T04:55:34;99412.84;;;9.48;65.57
72892;BME280;61032;50.782;6.818;2023-03-25T04:56:35;99408.88;;;9.45;65.35
72892;BME280;61032;50.782;6.818;2023-03-25T04:57:36;99406.56;;;9.47;65.35
72892;BME280;61032;50.782;6.818;2023-03-25T04:58:36;99400.97;;;9.44;64.99
72892;BME280;61032;50.782;6.818;2023-03-25T04:59:37;99404.78;;;9.39;64.95
72892;BME280;61032;50.782;6.818;2023-03-25T05:00:37;99412.66;;;9.41;65.44
72892;BME280;61032;50.782;6.818;2023-03-25T05:01:39;99416.75;;;9.47;65.80
72892;BME280;61032;50.782;6.818;2023-03-25T05:02:45;99405.53;;;9.52;65.55
72892;BME280;61032;50.782;6.818;2023-03-25T05:03:46;99421.19;;;9.51;65.58
72892;BME280;61032;50.782;6.818;2023-03-25T05:04:49;99416.22;;;9.57;65.30
72892;BME280;61032;50.782;6.818;2023-03-25T05:05:50;99414.31;;;9.29;65.95
72892;BME280;61032;50.782;6.818;2023-03-25T05:06:51;99411.75;;;9.37;66.25
72892;BME280;61032;50.782;6.818;2023-03-25T05:07:53;99414.88;;;9.35;66.41
72892;BME280;61032;50.782;6.818;2023-03-25T05:08:54;99403.28;;;9.42;66.05
72892;BME280;61032;50.782;6.818;2023-03-25T05:09:54;99411.84;;;9.40;66.00
72892;BME280;61032;50.782;6.818;2023-03-25T05:10:56;99408.88;;;9.45;65.73
72892;BME280;61032;50.782;6.818;2023-03-25T05:11:56;99405.53;;;9.52;65.74
72892;BME280;61032;50.782;6.818;2023-03-25T05:13:05;99414.91;;;9.51;65.70
72892;BME280;61032;50.782;6.818;2023-03-25T05:14:09;99405.19;;;9.53;65.66
72892;BME280;61032;50.782;6.818;2023-03-25T05:15:11;99411.50;;;9.42;65.43
72892;BME280;61032;50.782;6.818;2023-03-25T05:16:12;99414.34;;;9.45;66.07
72892;BME280;61032;50.782;6.818;2023-03-25T05:17:12;99408.41;;;9.43;65.45
72892;BME280;61032;50.782;6.818;2023-03-25T05:18:14;99405.66;;;9.43;65.70
72892;BME280;61032;50.782;6.818;2023-03-25T05:19:15;99409.38;;;9.35;66.19
72892;BME280;61032;50.782;6.818;2023-03-25T05:20:17;99408.66;;;9.38;66.35
72892;BME280;61032;50.782;6.818;2023-03-25T05:21:18;99406.56;;;9.47;65.81
72892;BME280;61032;50.782;6.818;2023-03-25T05:22:18;99407.47;;;9.51;66.03
72892;BME280;61032;50.782;6.818;2023-03-25T05:23:18;99411.47;;;9.54;65.58
72892;BME280;61032;50.782;6.818;2023-03-25T05:24:19;99411.13;;;9.55;65.49
72892;BME280;61032;50.782;6.818;2023-03-25T05:25:19;99403.91;;;9.35;65.64
72892;BME280;61032;50.782;6.818;2023-03-25T05:26:23;99426.13;;;9.46;65.69
72892;BME280;61032;50.782;6.818;2023-03-25T05:27:24;99418.34;;;9.48;65.11
72892;BME280;61032;50.782;6.818;2023-03-25T05:28:24;99423.97;;;9.39;65.43
72892;BME280;61032;50.782;6.818;2023-03-25T05:29:25;99414.16;;;9.38;65.66
72892;BME280;61032;50.782;6.818;2023-03-25T05:30:25;99420.44;;;9.39;66.35
72892;BME280;61032;50.782;6.818;2023-03-25T05:31:31;99426.38;;;9.41;65.54
72892;BME280;61032;50.782;6.818;2023-03-25T05:32:31;99426.47;;;9.44;65.45
72892;BME280;61032;50.782;6.818;2023-03-25T05:33:36;99415.75;;;9.39;65.58
72892;BME280;61032;50.782;6.818;2023-03-25T05:34:45;99411.47;;;9.26;66.07
72892;BME280;61032;50.782;6.818;2023-03-25T05:35:48;99416.69;;;9.31;66.04
72892;BME280;61032;50.782;6.818;2023-03-25T05:36:48;99417.00;;;9.42;65.37
72892;BME280;61032;50.782;6.818;2023-03-25T05:37:48;99409.56;;;9.42;66.10
72892;BME280;61032;50.782;6.818;2023-03-25T05:38:50;99408.41;;;9.43;65.48
72892;BME280;61032;50.782;6.818;2023-03-25T05:39:53;99409.19;;;9.56;65.10
72892;BME280;61032;50.782;6.818;2023-03-25T05:40:53;99409.94;;;9.56;65.48
72892;BME280;61032;50.782;6.818;2023-03-25T05:41:54;99399.78;;;9.57;64.72
72892;BME280;61032;50.782;6.818;2023-03-25T05:42:54;99408.56;;;9.62;65.17
72892;BME280;61032;50.782;6.818;2023-03-25T05:43:55;99404.28;;;9.49;65.28
72892;BME280;61032;50.782;6.818;2023-03-25T05:44:55;99413.78;;;9.40;65.36
72892;BME280;61032;50.782;6.818;2023-03-25T05:45:56;99415.41;;;9.41;65.72
72892;BME280;61032;50.782;6.818;2023-03-25T05:46:57;99408.06;;;9.45;66.02
72892;BME280;61032;50.782;6.818;2023-03-25T05:48:01;99411.16;;;9.43;66.24
72892;BME280;61032;50.782;6.818;2023-03-25T05:49:01;99414.09;;;9.50;65.99
72892;BME280;61032;50.782;6.818;2023-03-25T05:50:02;99409.88;;;9.53;65.90
72892;BME280;61032;50.782;6.818;2023-03-25T05:51:03;99412.28;;;9.54;66.08
72892;BME280;61032;50.782;6.818;2023-03-25T05:52:05;99411.03;;;9.52;65.96
72892;BME280;61032;50.782;6.818;2023-03-25T05:53:10;99420.31;;;9.63;65.84
72892;BME280;61032;50.782;6.818;2023-03-25T05:54:11;99410.16;;;9.63;66.05
72892;BME280;61032;50.782;6.818;2023-03-25T05:55:16;99423.81;;;9.76;65.88
72892;BME280;61032;50.782;6.818;2023-03-25T05:56:18;99412.41;;;9.74;65.10
72892;BME280;61032;50.782;6.818;2023-03-25T05:57:18;99416.00;;;9.78;65.04
72892;BME280;61032;50.782;6.818;2023-03-25T05:58:18;99410.16;;;9.63;65.49
72892;BME280;61032;50.782;6.818;2023-03-25T05:59:19;99408.41;;;9.43;66.13
72892;BME280;61032;50.782;6.818;2023-03-25T06:00:19;99408.75;;;9.42;66.39
72892;BME280;61032;50.782;6.818;2023-03-25T06:01:20;99408.16;;;9.48;66.41
72892;BME280;61032;50.782;6.818;2023-03-25T06:02:21;99420.91;;;9.56;66.61
72892;BME280;61032;50.782;6.818;2023-03-25T06:03:22;99409.19;;;9.56;66.52
72892;BME280;61032;50.782;6.818;2023-03-25T06:04:25;99411.75;;;9.64;65.85
72892;BME280;61032;50.782;6.818;2023-03-25T06:05:25;99412.91;;;9.63;65.93
72892;BME280;61032;50.782;6.818;2023-03-25T06:06:26;99420.88;;;9.69;65.08
72892;BME280;61032;50.782;6.818;2023-03-25T06:07:26;99412.66;;;9.69;65.67
72892;BME280;61032;50.782;6.818;2023-03-25T06:08:27;99406.56;;;9.75;65.36
72892;BME280;61032;50.782;6.818;2023-03-25T06:09:29;99407.78;;;9.78;65.31
72892;BME280;61032;50.782;6.818;2023-03-25T06:10:30;99399.53;;;9.78;65.26
72892;BME280;61032;50.782;6.818;2023-03-25T06:11:31;99402.56;;;9.73;64.59
72892;BME280;61032;50.782;6.818;2023-03-25T06:12:38;99409.34;;;9.63;64.49
72892;BME280;61032;50.782;6.818;2023-03-25T06:13:39;99405.66;;;9.71;64.67
72892;BME280;61032;50.782;6.818;2023-03-25T06:14:40;99409.03;;;9.80;64.75
72892;BME280;61032;50.782;6.818;2023-03-25T06:15:44;99410.53;;;9.78;63.86
72892;BME280;61032;50.782;6.818;2023-03-25T06:16:45;99413.53;;;9.73;64.83